sensor_id;sensor_type;location;lat;lon;timestamp;P1;durP1;ratioP1;P2;durP2;ratioP2
13793;SDS011;31160;49.500;7.772;2024-01-15T00:00:17;41.47;;;15.90;;
13793;SDS011;31160;49.500;7.772;2024-01-15T00:02:44;38.67;;;15.27;;
13793;SDS011;31160;49.500;7.772;2024-01-15T00:05:11;45.70;;;17.17;;
13793;SDS011;31160;49.500;7.772;2024-01-15T00:07:39;41.27;;;16.17;;
13793;SDS011;31160;49.500;7.772;2024-01-15T00:10:06;46.67;;;15.50;;
13793;SDS011;31160;49.500;7.772;2024-01-15T00:12:33;43.33;;;17.00;;
13793;SDS011;31160;49.500;7.772;2024-01-15T00:15:00;45.97;;;15.80;;
13793;SDS011;31160;49.500;7.772;2024-01-15T00:17:28;38.63;;;15.90;;
13793;SDS011;31160;49.500;7.772;2024-01-15T00:19:55;41.87;;;15.40;;
13793;SDS011;31160;49.500;7.772;2024-01-15T00:22:23;42.00;;;14.97;;
13793;SDS011;31160;49.500;7.772;2024-01-15T00:24:51;41.70;;;15.83;;
13793;SDS011;31160;49.500;7.772;2024-01-15T00:27:18;41.40;;;16.27;;
13793;SDS011;31160;49.500;7.772;2024-01-15T00:29:46;39.13;;;14.20;;
13793;SDS011;31160;49.500;7.772;2024-01-15T00:32:13;40.33;;;14.43;;
13793;SDS011;31160;49.500;7.772;2024-01-15T00:34:41;44.40;;;14.93;;
13793;SDS011;31160;49.500;7.772;2024-01-15T00:37:10;33.13;;;14.03;;
13793;SDS011;31160;49.500;7.772;2024-01-15T00:39:37;36.67;;;14.40;;
13793;SDS011;31160;49.500;7.772;2024-01-15T00:42:05;40.40;;;14.80;;
13793;SDS011;31160;49.500;7.772;2024-01-15T00:44:32;39.37;;;14.63;;
13793;SDS011;31160;49.500;7.772;2024-01-15T00:47:00;43.60;;;14.17;;
13793;SDS011;31160;49.500;7.772;2024-01-15T00:49:28;39.23;;;14.57;;
13793;SDS011;31160;49.500;7.772;2024-01-15T00:51:56;39.90;;;15.23;;
13793;SDS011;31160;49.500;7.772;2024-01-15T00:54:23;37.33;;;15.13;;
13793;SDS011;31160;49.500;7.772;2024-01-15T00:56:51;40.53;;;14.63;;
13793;SDS011;31160;49.500;7.772;2024-01-15T00:59:19;36.37;;;13.90;;
13793;SDS011;31160;49.500;7.772;2024-01-15T01:01:47;35.80;;;13.67;;
13793;SDS011;31160;49.500;7.772;2024-01-15T01:04:14;40.17;;;14.20;;
13793;SDS011;31160;49.500;7.772;2024-01-15T01:06:42;38.57;;;14.07;;
13793;SDS011;31160;49.500;7.772;2024-01-15T01:09:10;31.90;;;13.23;;
13793;SDS011;31160;49.500;7.772;2024-01-15T01:11:37;37.87;;;14.37;;
13793;SDS011;31160;49.500;7.772;2024-01-15T01:14:06;33.47;;;13.03;;
13793;SDS011;31160;49.500;7.772;2024-01-15T01:16:33;43.47;;;14.03;;
13793;SDS011;31160;49.500;7.772;2024-01-15T01:19:06;34.03;;;14.07;;
13793;SDS011;31160;49.500;7.772;2024-01-15T01:21:34;31.70;;;13.17;;
13793;SDS011;31160;49.500;7.772;2024-01-15T01:24:02;35.83;;;13.60;;
13793;SDS011;31160;49.500;7.772;2024-01-15T01:26:30;31.87;;;13.17;;
13793;SDS011;31160;49.500;7.772;2024-01-15T01:28:58;36.93;;;13.73;;
13793;SDS011;31160;49.500;7.772;2024-01-15T01:31:25;36.63;;;13.43;;
13793;SDS011;31160;49.500;7.772;2024-01-15T01:33:53;36.87;;;14.63;;
13793;SDS011;31160;49.500;7.772;2024-01-15T01:36:21;35.00;;;13.23;;
13793;SDS011;31160;49.500;7.772;2024-01-15T01:38:48;37.03;;;13.37;;
13793;SDS011;31160;49.500;7.772;2024-01-15T01:41:16;33.77;;;12.97;;
13793;SDS011;31160;49.500;7.772;2024-01-15T01:43:43;33.93;;;13.60;;
13793;SDS011;31160;49.500;7.772;2024-01-15T01:46:11;29.87;;;12.13;;
13793;SDS011;31160;49.500;7.772;2024-01-15T01:48:39;32.53;;;13.27;;
13793;SDS011;31160;49.500;7.772;2024-01-15T01:51:07;31.17;;;11.93;;
13793;SDS011;31160;49.500;7.772;2024-01-15T01:53:35;32.73;;;12.20;;
13793;SDS011;31160;49.500;7.772;2024-01-15T01:56:04;34.47;;;13.80;;
13793;SDS011;31160;49.500;7.772;2024-01-15T01:58:33;31.83;;;13.03;;
13793;SDS011;31160;49.500;7.772;2024-01-15T02:01:01;36.27;;;13.87;;
13793;SDS011;31160;49.500;7.772;2024-01-15T02:03:30;31.40;;;12.23;;
13793;SDS011;31160;49.500;7.772;2024-01-15T02:05:57;32.77;;;12.03;;
13793;SDS011;31160;49.500;7.772;2024-01-15T02:08:26;29.33;;;12.07;;
13793;SDS011;31160;49.500;7.772;2024-01-15T02:10:54;31.57;;;11.97;;
13793;SDS011;31160;49.500;7.772;2024-01-15T02:13:22;34.57;;;12.37;;
13793;SDS011;31160;49.500;7.772;2024-01-15T02:15:49;33.23;;;12.20;;
13793;SDS011;31160;49.500;7.772;2024-01-15T02:18:16;30.47;;;12.17;;
13793;SDS011;31160;49.500;7.772;2024-01-15T02:20:45;33.20;;;13.67;;
13793;SDS011;31160;49.500;7.772;2024-01-15T02:23:13;33.40;;;13.10;;
13793;SDS011;31160;49.500;7.772;2024-01-15T02:25:43;27.07;;;12.40;;
13793;SDS011;31160;49.500;7.772;2024-01-15T02:28:15;30.80;;;12.10;;
13793;SDS011;31160;49.500;7.772;2024-01-15T02:30:44;30.40;;;12.17;;
13793;SDS011;31160;49.500;7.772;2024-01-15T02:33:12;36.50;;;13.60;;
13793;SDS011;31160;49.500;7.772;2024-01-15T02:35:40;32.97;;;12.73;;
13793;SDS011;31160;49.500;7.772;2024-01-15T02:38:07;33.27;;;12.30;;
13793;SDS011;31160;49.500;7.772;2024-01-15T02:40:36;31.73;;;13.27;;
13793;SDS011;31160;49.500;7.772;2024-01-15T02:43:05;36.13;;;14.23;;
13793;SDS011;31160;49.500;7.772;2024-01-15T02:45:32;33.80;;;12.80;;
13793;SDS011;31160;49.500;7.772;2024-01-15T02:47:59;28.80;;;11.80;;
13793;SDS011;31160;49.500;7.772;2024-01-15T02:50:27;36.00;;;12.83;;
13793;SDS011;31160;49.500;7.772;2024-01-15T02:52:55;33.73;;;12.87;;
13793;SDS011;31160;49.500;7.772;2024-01-15T02:55:22;32.00;;;13.23;;
13793;SDS011;31160;49.500;7.772;2024-01-15T02:57:50;27.97;;;11.33;;
13793;SDS011;31160;49.500;7.772;2024-01-15T03:00:18;35.07;;;13.13;;
13793;SDS011;31160;49.500;7.772;2024-01-15T03:02:47;28.57;;;11.97;;
13793;SDS011;31160;49.500;7.772;2024-01-15T03:05:17;32.23;;;12.60;;
13793;SDS011;31160;49.500;7.772;2024-01-15T03:07:44;32.10;;;12.93;;
13793;SDS011;31160;49.500;7.772;2024-01-15T03:10:10;30.73;;;12.77;;
13793;SDS011;31160;49.500;7.772;2024-01-15T03:12:37;35.17;;;12.90;;
13793;SDS011;31160;49.500;7.772;2024-01-15T03:15:04;30.10;;;12.23;;
13793;SDS011;31160;49.500;7.772;2024-01-15T03:17:31;34.00;;;13.40;;
13793;SDS011;31160;49.500;7.772;2024-01-15T03:19:58;32.70;;;13.10;;
13793;SDS011;31160;49.500;7.772;2024-01-15T03:22:25;33.33;;;12.47;;
13793;SDS011;31160;49.500;7.772;2024-01-15T03:24:52;32.37;;;12.47;;
13793;SDS011;31160;49.500;7.772;2024-01-15T03:27:19;32.53;;;13.13;;
13793;SDS011;31160;49.500;7.772;2024-01-15T03:29:46;33.97;;;12.77;;
13793;SDS011;31160;49.500;7.772;2024-01-15T03:32:13;34.50;;;13.80;;
13793;SDS011;31160;49.500;7.772;2024-01-15T03:34:40;36.80;;;13.50;;
13793;SDS011;31160;49.500;7.772;2024-01-15T03:37:07;35.13;;;13.10;;
13793;SDS011;31160;49.500;7.772;2024-01-15T03:39:34;32.80;;;13.03;;
13793;SDS011;31160;49.500;7.772;2024-01-15T03:42:01;38.07;;;14.83;;
13793;SDS011;31160;49.500;7.772;2024-01-15T03:44:28;34.77;;;13.63;;
13793;SDS011;31160;49.500;7.772;2024-01-15T03:46:54;36.80;;;13.30;;
13793;SDS011;31160;49.500;7.772;2024-01-15T03:49:21;27.97;;;12.07;;
13793;SDS011;31160;49.500;7.772;2024-01-15T03:51:48;33.33;;;12.70;;
13793;SDS011;31160;49.500;7.772;2024-01-15T03:54:15;32.47;;;13.67;;
13793;SDS011;31160;49.500;7.772;2024-01-15T03:56:45;33.83;;;13.70;;
13793;SDS011;31160;49.500;7.772;2024-01-15T03:59:12;31.73;;;13.07;;
13793;SDS011;31160;49.500;7.772;2024-01-15T04:01:39;31.13;;;12.70;;
13793;SDS011;31160;49.500;7.772;2024-01-15T04:04:06;32.17;;;13.33;;
13793;SDS011;31160;49.500;7.772;2024-01-15T04:06:32;30.50;;;13.47;;
13793;SDS011;31160;49.500;7.772;2024-01-15T04:09:00;32.77;;;13.53;;
13793;SDS011;31160;49.500;7.772;2024-01-15T04:11:27;25.03;;;11.10;;
13793;SDS011;31160;49.500;7.772;2024-01-15T04:13:53;26.93;;;11.67;;
13793;SDS011;31160;49.500;7.772;2024-01-15T04:16:20;29.37;;;12.47;;
13793;SDS011;31160;49.500;7.772;2024-01-15T04:18:47;29.07;;;11.80;;
13793;SDS011;31160;49.500;7.772;2024-01-15T04:21:13;30.60;;;11.87;;
13793;SDS011;31160;49.500;7.772;2024-01-15T04:23:40;30.83;;;12.20;;
13793;SDS011;31160;49.500;7.772;2024-01-15T04:26:07;25.77;;;11.60;;
13793;SDS011;31160;49.500;7.772;2024-01-15T04:28:34;31.13;;;12.33;;
13793;SDS011;31160;49.500;7.772;2024-01-15T04:31:00;28.53;;;11.30;;
13793;SDS011;31160;49.500;7.772;2024-01-15T04:33:27;27.33;;;12.23;;
13793;SDS011;31160;49.500;7.772;2024-01-15T04:35:54;24.40;;;10.07;;
13793;SDS011;31160;49.500;7.772;2024-01-15T04:38:21;28.93;;;11.50;;
13793;SDS011;31160;49.500;7.772;2024-01-15T04:40:48;25.60;;;11.23;;
13793;SDS011;31160;49.500;7.772;2024-01-15T04:43:14;24.17;;;10.57;;
13793;SDS011;31160;49.500;7.772;2024-01-15T04:45:41;23.90;;;11.03;;
13793;SDS011;31160;49.500;7.772;2024-01-15T04:48:08;25.13;;;11.03;;
13793;SDS011;31160;49.500;7.772;2024-01-15T04:50:35;23.60;;;10.73;;
13793;SDS011;31160;49.500;7.772;2024-01-15T04:53:02;28.47;;;11.57;;
13793;SDS011;31160;49.500;7.772;2024-01-15T04:55:28;28.77;;;11.73;;
13793;SDS011;31160;49.500;7.772;2024-01-15T04:57:55;24.20;;;11.20;;
13793;SDS011;31160;49.500;7.772;2024-01-15T05:00:22;25.93;;;11.23;;
13793;SDS011;31160;49.500;7.772;2024-01-15T05:02:48;28.70;;;13.20;;
13793;SDS011;31160;49.500;7.772;2024-01-15T05:05:15;22.07;;;11.03;;
13793;SDS011;31160;49.500;7.772;2024-01-15T05:07:42;23.83;;;11.43;;
13793;SDS011;31160;49.500;7.772;2024-01-15T05:10:09;28.63;;;12.80;;
13793;SDS011;31160;49.500;7.772;2024-01-15T05:12:36;31.10;;;12.50;;
13793;SDS011;31160;49.500;7.772;2024-01-15T05:15:03;27.47;;;12.60;;
13793;SDS011;31160;49.500;7.772;2024-01-15T05:17:30;31.07;;;12.87;;
13793;SDS011;31160;49.500;7.772;2024-01-15T05:19:57;28.33;;;12.97;;
13793;SDS011;31160;49.500;7.772;2024-01-15T05:22:24;31.07;;;12.97;;
13793;SDS011;31160;49.500;7.772;2024-01-15T05:24:51;30.20;;;12.13;;
13793;SDS011;31160;49.500;7.772;2024-01-15T05:27:18;35.20;;;14.40;;
13793;SDS011;31160;49.500;7.772;2024-01-15T05:29:45;32.53;;;13.07;;
13793;SDS011;31160;49.500;7.772;2024-01-15T05:32:12;30.10;;;13.43;;
13793;SDS011;31160;49.500;7.772;2024-01-15T05:34:38;31.03;;;12.97;;
13793;SDS011;31160;49.500;7.772;2024-01-15T05:37:05;32.03;;;13.17;;
13793;SDS011;31160;49.500;7.772;2024-01-15T05:39:32;27.77;;;12.07;;
13793;SDS011;31160;49.500;7.772;2024-01-15T05:41:58;31.47;;;12.90;;
13793;SDS011;31160;49.500;7.772;2024-01-15T05:44:26;30.93;;;13.13;;
13793;SDS011;31160;49.500;7.772;2024-01-15T05:46:53;36.47;;;14.57;;
13793;SDS011;31160;49.500;7.772;2024-01-15T05:49:20;32.90;;;14.23;;
13793;SDS011;31160;49.500;7.772;2024-01-15T05:51:47;38.10;;;14.67;;
13793;SDS011;31160;49.500;7.772;2024-01-15T05:54:13;28.13;;;13.27;;
13793;SDS011;31160;49.500;7.772;2024-01-15T05:56:40;34.20;;;13.93;;
13793;SDS011;31160;49.500;7.772;2024-01-15T05:59:07;30.53;;;13.43;;
13793;SDS011;31160;49.500;7.772;2024-01-15T06:01:34;32.93;;;14.73;;
13793;SDS011;31160;49.500;7.772;2024-01-15T06:04:01;30.87;;;13.43;;
13793;SDS011;31160;49.500;7.772;2024-01-15T06:06:28;28.97;;;13.00;;
13793;SDS011;31160;49.500;7.772;2024-01-15T06:08:55;30.70;;;12.97;;
13793;SDS011;31160;49.500;7.772;2024-01-15T06:11:29;30.17;;;13.57;;
13793;SDS011;31160;49.500;7.772;2024-01-15T06:13:56;29.67;;;13.30;;
13793;SDS011;31160;49.500;7.772;2024-01-15T06:16:23;27.37;;;12.80;;
13793;SDS011;31160;49.500;7.772;2024-01-15T06:18:50;34.03;;;14.73;;
13793;SDS011;31160;49.500;7.772;2024-01-15T06:21:17;27.37;;;12.50;;
13793;SDS011;31160;49.500;7.772;2024-01-15T06:23:44;28.73;;;13.47;;
13793;SDS011;31160;49.500;7.772;2024-01-15T06:26:14;29.30;;;13.90;;
13793;SDS011;31160;49.500;7.772;2024-01-15T06:28:40;29.43;;;13.30;;
13793;SDS011;31160;49.500;7.772;2024-01-15T06:31:07;31.57;;;13.57;;
13793;SDS011;31160;49.500;7.772;2024-01-15T06:33:34;29.23;;;12.67;;
13793;SDS011;31160;49.500;7.772;2024-01-15T06:36:01;28.77;;;12.70;;
13793;SDS011;31160;49.500;7.772;2024-01-15T06:38:28;30.47;;;13.33;;
13793;SDS011;31160;49.500;7.772;2024-01-15T06:40:55;28.87;;;13.10;;
13793;SDS011;31160;49.500;7.772;2024-01-15T06:43:21;25.07;;;11.93;;
13793;SDS011;31160;49.500;7.772;2024-01-15T06:45:48;25.97;;;12.60;;
13793;SDS011;31160;49.500;7.772;2024-01-15T06:48:15;32.83;;;14.03;;
13793;SDS011;31160;49.500;7.772;2024-01-15T06:50:43;27.73;;;13.53;;
13793;SDS011;31160;49.500;7.772;2024-01-15T06:53:10;33.13;;;13.73;;
13793;SDS011;31160;49.500;7.772;2024-01-15T06:55:37;28.70;;;13.43;;
13793;SDS011;31160;49.500;7.772;2024-01-15T06:58:05;28.00;;;13.47;;
13793;SDS011;31160;49.500;7.772;2024-01-15T07:00:31;26.70;;;12.57;;
13793;SDS011;31160;49.500;7.772;2024-01-15T07:02:58;29.97;;;12.37;;
13793;SDS011;31160;49.500;7.772;2024-01-15T07:05:25;31.20;;;13.63;;
13793;SDS011;31160;49.500;7.772;2024-01-15T07:07:52;27.00;;;13.13;;
13793;SDS011;31160;49.500;7.772;2024-01-15T07:10:19;27.50;;;13.33;;
13793;SDS011;31160;49.500;7.772;2024-01-15T07:12:46;27.23;;;12.93;;
13793;SDS011;31160;49.500;7.772;2024-01-15T07:15:13;25.07;;;12.70;;
13793;SDS011;31160;49.500;7.772;2024-01-15T07:17:40;30.63;;;14.00;;
13793;SDS011;31160;49.500;7.772;2024-01-15T07:20:07;26.47;;;13.30;;
13793;SDS011;31160;49.500;7.772;2024-01-15T07:22:35;27.80;;;13.23;;
13793;SDS011;31160;49.500;7.772;2024-01-15T07:25:03;28.57;;;12.97;;
13793;SDS011;31160;49.500;7.772;2024-01-15T07:27:33;29.57;;;13.97;;
13793;SDS011;31160;49.500;7.772;2024-01-15T07:30:00;28.90;;;13.87;;
13793;SDS011;31160;49.500;7.772;2024-01-15T07:32:28;28.30;;;12.90;;
13793;SDS011;31160;49.500;7.772;2024-01-15T07:34:55;27.23;;;13.07;;
13793;SDS011;31160;49.500;7.772;2024-01-15T07:37:22;27.03;;;12.53;;
13793;SDS011;31160;49.500;7.772;2024-01-15T07:39:49;28.17;;;13.37;;
13793;SDS011;31160;49.500;7.772;2024-01-15T07:42:16;25.50;;;12.20;;
13793;SDS011;31160;49.500;7.772;2024-01-15T07:44:43;27.90;;;12.93;;
13793;SDS011;31160;49.500;7.772;2024-01-15T07:47:11;29.77;;;14.40;;
13793;SDS011;31160;49.500;7.772;2024-01-15T07:49:38;28.77;;;12.67;;
13793;SDS011;31160;49.500;7.772;2024-01-15T07:52:05;30.27;;;13.63;;
13793;SDS011;31160;49.500;7.772;2024-01-15T07:54:32;24.63;;;12.73;;
13793;SDS011;31160;49.500;7.772;2024-01-15T07:56:59;28.40;;;13.47;;
13793;SDS011;31160;49.500;7.772;2024-01-15T07:59:28;23.37;;;12.10;;
13793;SDS011;31160;49.500;7.772;2024-01-15T08:01:55;24.87;;;11.83;;
13793;SDS011;31160;49.500;7.772;2024-01-15T08:04:22;25.83;;;13.10;;
13793;SDS011;31160;49.500;7.772;2024-01-15T08:06:49;27.10;;;13.23;;
13793;SDS011;31160;49.500;7.772;2024-01-15T08:09:16;22.17;;;11.40;;
13793;SDS011;31160;49.500;7.772;2024-01-15T08:11:43;22.90;;;11.93;;
13793;SDS011;31160;49.500;7.772;2024-01-15T08:14:10;22.97;;;12.27;;
13793;SDS011;31160;49.500;7.772;2024-01-15T08:16:37;28.97;;;13.47;;
13793;SDS011;31160;49.500;7.772;2024-01-15T08:19:05;26.07;;;12.80;;
13793;SDS011;31160;49.500;7.772;2024-01-15T08:21:32;30.50;;;12.93;;
13793;SDS011;31160;49.500;7.772;2024-01-15T08:24:00;28.17;;;12.93;;
13793;SDS011;31160;49.500;7.772;2024-01-15T08:26:27;29.00;;;13.60;;
13793;SDS011;31160;49.500;7.772;2024-01-15T08:28:55;26.73;;;13.87;;
13793;SDS011;31160;49.500;7.772;2024-01-15T08:31:22;24.80;;;12.53;;
13793;SDS011;31160;49.500;7.772;2024-01-15T08:33:49;25.07;;;12.43;;
13793;SDS011;31160;49.500;7.772;2024-01-15T08:36:16;25.70;;;12.57;;
13793;SDS011;31160;49.500;7.772;2024-01-15T08:38:43;27.47;;;14.13;;
13793;SDS011;31160;49.500;7.772;2024-01-15T08:41:09;24.33;;;11.53;;
13793;SDS011;31160;49.500;7.772;2024-01-15T08:43:36;29.90;;;12.67;;
13793;SDS011;31160;49.500;7.772;2024-01-15T08:46:03;25.57;;;12.40;;
13793;SDS011;31160;49.500;7.772;2024-01-15T08:48:30;26.83;;;12.03;;
13793;SDS011;31160;49.500;7.772;2024-01-15T08:50:57;22.97;;;12.67;;
13793;SDS011;31160;49.500;7.772;2024-01-15T08:53:24;25.73;;;12.23;;
13793;SDS011;31160;49.500;7.772;2024-01-15T08:55:50;24.27;;;11.93;;
13793;SDS011;31160;49.500;7.772;2024-01-15T08:58:17;22.27;;;12.60;;
13793;SDS011;31160;49.500;7.772;2024-01-15T09:00:44;25.70;;;12.33;;
13793;SDS011;31160;49.500;7.772;2024-01-15T09:03:11;23.10;;;11.90;;
13793;SDS011;31160;49.500;7.772;2024-01-15T09:05:38;24.47;;;12.83;;
13793;SDS011;31160;49.500;7.772;2024-01-15T09:08:05;24.30;;;12.37;;
13793;SDS011;31160;49.500;7.772;2024-01-15T09:10:32;26.57;;;12.50;;
13793;SDS011;31160;49.500;7.772;2024-01-15T09:12:58;25.43;;;13.00;;
13793;SDS011;31160;49.500;7.772;2024-01-15T09:15:26;22.53;;;12.30;;
13793;SDS011;31160;49.500;7.772;2024-01-15T09:17:54;20.00;;;11.00;;
13793;SDS011;31160;49.500;7.772;2024-01-15T09:20:21;24.00;;;12.00;;
13793;SDS011;31160;49.500;7.772;2024-01-15T09:22:47;29.27;;;13.53;;
13793;SDS011;31160;49.500;7.772;2024-01-15T09:25:14;23.07;;;12.10;;
13793;SDS011;31160;49.500;7.772;2024-01-15T09:27:41;23.53;;;11.70;;
13793;SDS011;31160;49.500;7.772;2024-01-15T09:30:08;23.37;;;11.53;;
13793;SDS011;31160;49.500;7.772;2024-01-15T09:32:36;31.43;;;13.00;;
13793;SDS011;31160;49.500;7.772;2024-01-15T09:35:03;23.73;;;11.90;;
13793;SDS011;31160;49.500;7.772;2024-01-15T09:37:30;24.97;;;13.57;;
13793;SDS011;31160;49.500;7.772;2024-01-15T09:40:13;26.03;;;12.53;;
13793;SDS011;31160;49.500;7.772;2024-01-15T09:42:42;20.63;;;11.63;;
13793;SDS011;31160;49.500;7.772;2024-01-15T09:45:10;22.40;;;11.30;;
13793;SDS011;31160;49.500;7.772;2024-01-15T09:47:37;24.87;;;11.63;;
13793;SDS011;31160;49.500;7.772;2024-01-15T09:50:10;21.77;;;11.80;;
13793;SDS011;31160;49.500;7.772;2024-01-15T09:52:37;19.83;;;11.07;;
13793;SDS011;31160;49.500;7.772;2024-01-15T09:55:05;19.93;;;10.67;;
13793;SDS011;31160;49.500;7.772;2024-01-15T09:57:32;22.20;;;10.90;;
13793;SDS011;31160;49.500;7.772;2024-01-15T09:59:59;21.13;;;10.97;;
13793;SDS011;31160;49.500;7.772;2024-01-15T10:02:30;19.80;;;10.57;;
13793;SDS011;31160;49.500;7.772;2024-01-15T10:04:57;22.27;;;11.27;;
13793;SDS011;31160;49.500;7.772;2024-01-15T10:07:25;21.77;;;10.73;;
13793;SDS011;31160;49.500;7.772;2024-01-15T10:09:52;22.83;;;11.23;;
13793;SDS011;31160;49.500;7.772;2024-01-15T10:12:20;21.40;;;10.83;;
13793;SDS011;31160;49.500;7.772;2024-01-15T10:14:48;21.60;;;9.97;;
13793;SDS011;31160;49.500;7.772;2024-01-15T10:17:16;19.53;;;10.90;;
13793;SDS011;31160;49.500;7.772;2024-01-15T10:19:46;18.40;;;9.40;;
13793;SDS011;31160;49.500;7.772;2024-01-15T10:22:16;18.73;;;9.60;;
13793;SDS011;31160;49.500;7.772;2024-01-15T10:24:44;18.50;;;9.53;;
13793;SDS011;31160;49.500;7.772;2024-01-15T10:27:13;18.97;;;9.00;;
13793;SDS011;31160;49.500;7.772;2024-01-15T10:29:41;20.87;;;9.80;;
13793;SDS011;31160;49.500;7.772;2024-01-15T10:32:08;17.73;;;9.50;;
13793;SDS011;31160;49.500;7.772;2024-01-15T10:34:42;17.77;;;9.80;;
13793;SDS011;31160;49.500;7.772;2024-01-15T10:37:10;18.70;;;8.90;;
13793;SDS011;31160;49.500;7.772;2024-01-15T10:39:37;21.67;;;10.67;;
13793;SDS011;31160;49.500;7.772;2024-01-15T10:42:04;20.60;;;9.93;;
13793;SDS011;31160;49.500;7.772;2024-01-15T10:44:33;21.50;;;10.13;;
13793;SDS011;31160;49.500;7.772;2024-01-15T10:47:00;17.63;;;9.53;;
13793;SDS011;31160;49.500;7.772;2024-01-15T10:49:27;21.70;;;10.63;;
13793;SDS011;31160;49.500;7.772;2024-01-15T10:52:00;19.00;;;10.13;;
13793;SDS011;31160;49.500;7.772;2024-01-15T10:54:28;22.00;;;10.07;;
13793;SDS011;31160;49.500;7.772;2024-01-15T10:56:56;21.73;;;11.40;;
13793;SDS011;31160;49.500;7.772;2024-01-15T10:59:23;19.63;;;10.53;;
13793;SDS011;31160;49.500;7.772;2024-01-15T11:01:50;17.80;;;9.70;;
13793;SDS011;31160;49.500;7.772;2024-01-15T11:04:22;17.63;;;10.07;;
13793;SDS011;31160;49.500;7.772;2024-01-15T11:06:52;18.57;;;9.07;;
13793;SDS011;31160;49.500;7.772;2024-01-15T11:09:23;18.87;;;9.80;;
13793;SDS011;31160;49.500;7.772;2024-01-15T11:11:51;19.33;;;10.10;;
13793;SDS011;31160;49.500;7.772;2024-01-15T11:14:38;18.07;;;10.03;;
13793;SDS011;31160;49.500;7.772;2024-01-15T11:17:07;19.40;;;10.37;;
13793;SDS011;31160;49.500;7.772;2024-01-15T11:22:10;19.27;;;10.60;;
13793;SDS011;31160;49.500;7.772;2024-01-15T11:24:56;20.47;;;10.40;;
13793;SDS011;31160;49.500;7.772;2024-01-15T11:27:39;18.57;;;10.20;;
13793;SDS011;31160;49.500;7.772;2024-01-15T11:30:08;21.67;;;11.17;;
13793;SDS011;31160;49.500;7.772;2024-01-15T11:32:39;20.97;;;10.60;;
13793;SDS011;31160;49.500;7.772;2024-01-15T11:35:10;19.03;;;10.07;;
13793;SDS011;31160;49.500;7.772;2024-01-15T11:40:36;22.60;;;10.57;;
13793;SDS011;31160;49.500;7.772;2024-01-15T11:43:04;21.60;;;10.50;;
13793;SDS011;31160;49.500;7.772;2024-01-15T11:45:33;20.00;;;10.57;;
13793;SDS011;31160;49.500;7.772;2024-01-15T11:48:13;20.47;;;11.07;;
13793;SDS011;31160;49.500;7.772;2024-01-15T11:50:43;19.43;;;10.30;;
13793;SDS011;31160;49.500;7.772;2024-01-15T11:53:34;21.43;;;11.63;;
13793;SDS011;31160;49.500;7.772;2024-01-15T11:56:01;19.67;;;9.70;;
13793;SDS011;31160;49.500;7.772;2024-01-15T11:58:29;18.97;;;9.90;;
13793;SDS011;31160;49.500;7.772;2024-01-15T12:00:57;24.43;;;11.43;;
13793;SDS011;31160;49.500;7.772;2024-01-15T12:03:24;18.70;;;10.03;;
13793;SDS011;31160;49.500;7.772;2024-01-15T12:05:54;22.70;;;11.43;;
13793;SDS011;31160;49.500;7.772;2024-01-15T12:08:22;17.87;;;10.13;;
13793;SDS011;31160;49.500;7.772;2024-01-15T12:10:50;19.13;;;11.03;;
13793;SDS011;31160;49.500;7.772;2024-01-15T12:13:17;18.40;;;10.77;;
13793;SDS011;31160;49.500;7.772;2024-01-15T12:15:45;21.40;;;10.53;;
13793;SDS011;31160;49.500;7.772;2024-01-15T12:18:13;19.73;;;10.17;;
13793;SDS011;31160;49.500;7.772;2024-01-15T12:20:42;15.30;;;9.57;;
13793;SDS011;31160;49.500;7.772;2024-01-15T12:23:10;14.83;;;8.80;;
13793;SDS011;31160;49.500;7.772;2024-01-15T12:25:37;15.47;;;8.60;;
13793;SDS011;31160;49.500;7.772;2024-01-15T12:28:05;16.43;;;8.67;;
13793;SDS011;31160;49.500;7.772;2024-01-15T12:30:32;12.87;;;7.77;;
13793;SDS011;31160;49.500;7.772;2024-01-15T12:33:04;14.40;;;7.77;;
13793;SDS011;31160;49.500;7.772;2024-01-15T12:35:33;14.10;;;8.67;;
13793;SDS011;31160;49.500;7.772;2024-01-15T12:38:00;13.20;;;7.93;;
13793;SDS011;31160;49.500;7.772;2024-01-15T12:40:31;16.23;;;7.97;;
13793;SDS011;31160;49.500;7.772;2024-01-15T12:42:59;13.07;;;7.33;;
13793;SDS011;31160;49.500;7.772;2024-01-15T12:45:27;13.67;;;7.90;;
13793;SDS011;31160;49.500;7.772;2024-01-15T12:47:54;12.10;;;7.13;;
13793;SDS011;31160;49.500;7.772;2024-01-15T12:50:23;14.67;;;8.60;;
13793;SDS011;31160;49.500;7.772;2024-01-15T12:52:51;13.20;;;7.80;;
13793;SDS011;31160;49.500;7.772;2024-01-15T12:55:17;13.90;;;7.67;;
13793;SDS011;31160;49.500;7.772;2024-01-15T12:57:44;15.77;;;7.50;;
13793;SDS011;31160;49.500;7.772;2024-01-15T13:00:12;14.13;;;7.90;;
13793;SDS011;31160;49.500;7.772;2024-01-15T13:02:43;11.73;;;7.37;;
13793;SDS011;31160;49.500;7.772;2024-01-15T13:05:10;14.70;;;7.83;;
13793;SDS011;31160;49.500;7.772;2024-01-15T13:07:39;12.03;;;7.33;;
13793;SDS011;31160;49.500;7.772;2024-01-15T13:10:06;11.43;;;7.27;;
13793;SDS011;31160;49.500;7.772;2024-01-15T13:12:35;12.43;;;8.03;;
13793;SDS011;31160;49.500;7.772;2024-01-15T13:15:03;13.57;;;7.63;;
13793;SDS011;31160;49.500;7.772;2024-01-15T13:17:30;12.67;;;7.33;;
13793;SDS011;31160;49.500;7.772;2024-01-15T13:19:57;12.10;;;6.83;;
13793;SDS011;31160;49.500;7.772;2024-01-15T13:22:25;13.70;;;7.63;;
13793;SDS011;31160;49.500;7.772;2024-01-15T13:24:59;13.13;;;7.67;;
13793;SDS011;31160;49.500;7.772;2024-01-15T13:27:26;12.83;;;6.73;;
13793;SDS011;31160;49.500;7.772;2024-01-15T13:29:53;10.90;;;6.93;;
13793;SDS011;31160;49.500;7.772;2024-01-15T13:32:27;10.97;;;6.90;;
13793;SDS011;31160;49.500;7.772;2024-01-15T13:34:56;10.80;;;6.87;;
13793;SDS011;31160;49.500;7.772;2024-01-15T13:37:23;12.43;;;7.27;;
13793;SDS011;31160;49.500;7.772;2024-01-15T13:39:51;12.70;;;6.80;;
13793;SDS011;31160;49.500;7.772;2024-01-15T13:42:20;12.87;;;7.40;;
13793;SDS011;31160;49.500;7.772;2024-01-15T13:44:50;13.87;;;7.87;;
13793;SDS011;31160;49.500;7.772;2024-01-15T13:47:18;14.50;;;7.07;;
13793;SDS011;31160;49.500;7.772;2024-01-15T13:49:45;13.57;;;6.50;;
13793;SDS011;31160;49.500;7.772;2024-01-15T13:52:12;10.57;;;7.33;;
13793;SDS011;31160;49.500;7.772;2024-01-15T13:54:39;11.30;;;6.90;;
13793;SDS011;31160;49.500;7.772;2024-01-15T13:57:16;11.47;;;6.83;;
13793;SDS011;31160;49.500;7.772;2024-01-15T13:59:44;10.83;;;6.40;;
13793;SDS011;31160;49.500;7.772;2024-01-15T14:02:10;11.07;;;6.20;;
13793;SDS011;31160;49.500;7.772;2024-01-15T14:04:39;12.07;;;6.07;;
13793;SDS011;31160;49.500;7.772;2024-01-15T14:07:07;10.50;;;6.87;;
13793;SDS011;31160;49.500;7.772;2024-01-15T14:09:34;11.83;;;7.23;;
13793;SDS011;31160;49.500;7.772;2024-01-15T14:12:01;11.97;;;6.77;;
13793;SDS011;31160;49.500;7.772;2024-01-15T14:14:28;12.10;;;6.60;;
13793;SDS011;31160;49.500;7.772;2024-01-15T14:16:55;9.13;;;5.80;;
13793;SDS011;31160;49.500;7.772;2024-01-15T14:19:23;11.50;;;5.87;;
13793;SDS011;31160;49.500;7.772;2024-01-15T14:21:50;11.30;;;5.77;;
13793;SDS011;31160;49.500;7.772;2024-01-15T14:24:16;11.03;;;6.83;;
13793;SDS011;31160;49.500;7.772;2024-01-15T14:26:45;11.07;;;6.97;;
13793;SDS011;31160;49.500;7.772;2024-01-15T14:29:12;9.17;;;6.40;;
13793;SDS011;31160;49.500;7.772;2024-01-15T14:31:38;9.40;;;5.63;;